Kezdőlap
METAR-TAF:

METAR-TAF

Repülőterek :

Luang Namtha, Laosz

földrajzi szélesség: 20-57-38N, földrajzi hosszúság: 101-24-09E, magasság: 600 m

Jelenlegi meteorológiai megfigyelések

A jelentés 20 perccel ezelõtt készült, 04:00 UTC
Nyugati szél 2 kt
Hőmérséklet 30°C
Páratartalom 49%
Légköri nyomás 1014 hPa
Látótávolság: 8000 m

METAR: VLLN 130400Z 27002KT 8000 NSC 30/18 Q1014 NOSIG

Idő: 09:50 (04:20 UTC)

Előrejelzés

A jelentés 5 órával és 20 perccel ezelõtt készült, 23:00 UTC
Az előrejelzés 13-én 00 óra UTC és 13-én 24 óra UTC között érvényes
Nyugati szél 4 kt
Látótávolság: 8000 m
Szórványos felhőzet 2000 lábon
Szakadozott felhőzet 10000 lábon

TAF: VLLN 122300Z 1300/1324 27004KT 8000 SCT020 BKN100

Meteorológiai megfigyelések és előrejelzések több, mint 4000 repülőtéren (METAR és TAF jelentéseket).

A térképen piros és sárga pontok jelzik az elérhető meteorológiai állomásokat.

Mozgassa az egeret a pont fölött, hogy megjelenjen az állomás neve.

Azután kattintson az időjárási megfigyelések és előrejelzések megtekintéséhez.

A térkép megváltoztatása: kattintson a fekete keresztel jelölt zöld gombra ráközelítéshez, a vonallal jelölt zöld gombra távolításhoz, vagy a zöld nyilakra a szomszédos térképek eléréséhez.


METAR-TAF: